Agate, Nebraska
Current Conditions -  °F | °C
As of 1:53 AM on Wednesday 22 Oct 2014 (Local Time) from KTOR Reporting Station
Light Rain Light Rain  
Wind Chill: 54°   Ceiling: 6000
Heat Index: 54°   Visibility: 10mi
Dew Point: 47°   Wind: 10mph
Humidity: 77%   Direction: 250°WSW
Pressure: 29.95"   Gusts: NA
Location:  42.42°N, 103.79°W
Report Text: KTOR 220753Z AUTO 25009KT 10SM -RA BKN060 OVC075 12/08 A2995 RMK AO2 WSHFT 0722 RAB0658 SLP100 P0000 T01220083
Loading
Personal Weather Stations






























Interactive Weather Map
Tropical Storm Tracking
New forecast layout! Learn more

10-Day Weather Forecast

Advertisements
Track Severe Weather on mobile